Time;durP1;ratioP1;P1;durP2;ratioP2;P2;SDS_P1;SDS_P2;PMS_P1;PMS_P2;Temp;Humidity;BMP_temperature;BMP_pressure;BME280_temperature;BME280_humidity;BME280_pressure;Samples;Min_cycle;Max_cycle;Signal;HPM_P1;HPM_P2
2022/12/16 00:02:18;;;;;;;6.82;3.97;;;;;;;-142.75;100.00;78259.59;4992063;28;20352;-65
2022/12/16 00:04:44;;;;;;;8.00;3.67;;;;;;;-142.75;100.00;78271.41;4994767;28;20314;-65
2022/12/16 00:07:09;;;;;;;11.65;3.33;;;;;;;-142.75;100.00;78263.53;4985921;28;20346;-65
2022/12/16 00:09:35;;;;;;;4.95;3.20;;;;;;;-142.75;100.00;78259.59;4994600;28;20382;-65
2022/12/16 00:12:00;;;;;;;9.32;3.20;;;;;;;-142.75;100.00;78269.44;4988197;28;20349;-65
2022/12/16 00:14:27;;;;;;;11.45;3.47;;;;;;;-142.75;100.00;78267.47;4997336;28;20029;-65
2022/12/16 00:16:53;;;;;;;7.40;2.83;;;;;;;-142.75;100.00;78251.72;4990567;28;20423;-65
2022/12/16 00:19:19;;;;;;;4.45;2.50;;;;;;;-142.75;100.00;78245.81;4988399;28;20079;-65
2022/12/16 00:21:44;;;;;;;7.88;2.60;;;;;;;-142.75;100.00;78245.81;4993578;28;20433;-64
2022/12/16 00:24:10;;;;;;;5.97;2.17;;;;;;;-142.75;100.00;78245.81;4999669;28;20068;-66
2022/12/16 00:26:35;;;;;;;7.47;2.15;;;;;;;-142.75;100.00;78263.53;4991176;28;20334;-65
2022/12/16 00:29:04;;;;;;;2.13;1.50;;;;;;;-142.75;100.00;78259.59;4989315;28;20326;-66
2022/12/16 00:31:29;;;;;;;6.90;2.00;;;;;;;-142.75;100.00;78267.47;4991302;28;20594;-66
2022/12/16 00:33:56;;;;;;;10.18;1.98;;;;;;;-142.75;100.00;78275.34;5001900;28;20060;-66
2022/12/16 00:36:21;;;;;;;7.03;1.60;;;;;;;-142.75;100.00;78279.28;4996308;28;20631;-66
2022/12/16 00:38:47;;;;;;;2.88;1.60;;;;;;;-142.75;100.00;78291.09;4989772;28;20107;-66
2022/12/16 00:41:12;;;;;;;4.15;1.77;;;;;;;-142.75;100.00;78302.94;4985872;28;20423;-66
2022/12/16 00:43:38;;;;;;;2.78;1.60;;;;;;;-142.75;100.00;78289.13;4997910;28;20035;-66
2022/12/16 00:46:04;;;;;;;3.00;1.60;;;;;;;-142.75;100.00;78285.19;4992475;28;20350;-66
2022/12/16 00:48:29;;;;;;;2.30;1.40;;;;;;;-142.75;100.00;78300.97;4999881;28;20568;-66
2022/12/16 00:50:55;;;;;;;3.28;1.27;;;;;;;-142.75;100.00;78285.19;4989680;28;20167;-66
2022/12/16 00:53:22;;;;;;;5.22;1.60;;;;;;;-142.75;100.00;78308.84;4987840;28;20365;-66
2022/12/16 00:55:47;;;;;;;2.37;0.93;;;;;;;-142.75;100.00;78302.94;4984589;28;20145;-66
2022/12/16 00:58:13;;;;;;;3.83;1.48;;;;;;;-142.75;100.00;78302.94;4986337;28;20431;-66
2022/12/16 01:00:39;;;;;;;2.33;1.50;;;;;;;-142.75;100.00;78308.84;4987303;28;20189;-66
2022/12/16 01:03:04;;;;;;;3.40;1.40;;;;;;;-142.75;100.00;78295.06;4998442;28;20297;-66
2022/12/16 01:05:30;;;;;;;5.78;1.33;;;;;;;-142.75;100.00;78291.09;4989684;28;20366;-66
2022/12/16 01:07:55;;;;;;;2.78;1.27;;;;;;;-142.75;100.00;78312.78;4992993;28;20167;-66
2022/12/16 01:10:22;;;;;;;3.17;1.63;;;;;;;-142.75;100.00;78310.81;4982999;28;20461;-66
2022/12/16 01:12:48;;;;;;;6.40;1.23;;;;;;;-142.75;100.00;78297.00;4983086;28;20037;-66
2022/12/16 01:15:14;;;;;;;3.08;1.35;;;;;;;-142.75;100.00;78295.06;4998814;28;20318;-66
2022/12/16 01:17:40;;;;;;;2.73;1.13;;;;;;;-142.75;100.00;78306.88;4989926;28;20029;-66
2022/12/16 01:20:06;;;;;;;4.40;1.38;;;;;;;-142.75;100.00;78310.81;4986880;28;20345;-66
2022/12/16 01:22:32;;;;;;;2.10;1.20;;;;;;;-142.75;100.00;78306.88;4991699;28;20059;-66
2022/12/16 01:24:58;;;;;;;4.65;1.35;;;;;;;-142.75;100.00;78312.78;4991769;28;20345;-66
2022/12/16 01:27:24;;;;;;;4.03;1.10;;;;;;;-142.75;100.00;78318.69;4994438;28;20596;-66
2022/12/16 01:29:50;;;;;;;5.95;1.33;;;;;;;-142.75;100.00;78330.50;4997543;28;20020;-66
2022/12/16 01:32:16;;;;;;;1.95;1.02;;;;;;;-142.75;100.00;78320.66;4989039;28;20442;-66
2022/12/16 01:34:41;;;;;;;3.33;1.48;;;;;;;-142.75;100.00;78328.53;4994572;28;20063;-66
2022/12/16 01:37:13;;;;;;;1.80;0.90;;;;;;;-142.75;100.00;78354.13;4991957;28;20354;-66
2022/12/16 01:39:38;;;;;;;3.80;1.37;;;;;;;-142.75;100.00;78350.19;4981726;28;20136;-66
2022/12/16 01:42:19;;;;;;;5.70;1.17;;;;;;;-142.75;100.00;78385.63;4992527;28;20337;-66
2022/12/16 01:44:47;;;;;;;5.97;1.70;;;;;;;-142.75;100.00;78385.63;4994164;28;20120;-66
2022/12/16 01:47:19;;;;;;;4.83;1.50;;;;;;;-142.75;100.00;78383.66;4985427;28;20021;-66
2022/12/16 01:49:57;;;;;;;4.03;1.13;;;;;;;-142.75;100.00;78379.72;4991052;28;20064;-66
2022/12/16 01:52:28;;;;;;;2.43;1.33;;;;;;;-142.75;100.00;78373.81;4979781;28;20032;-66
2022/12/16 01:55:01;;;;;;;3.13;1.07;;;;;;;-142.75;100.00;78375.78;4989207;28;20121;-66
2022/12/16 01:57:35;;;;;;;3.37;1.30;;;;;;;-142.75;100.00;78389.56;5004364;28;20106;-66
2022/12/16 02:00:03;;;;;;;5.63;1.40;;;;;;;-142.75;100.00;78409.28;4987943;28;20111;-66
2022/12/16 02:02:28;;;;;;;4.60;1.60;;;;;;;-142.75;100.00;78413.22;5000576;28;20529;-66
2022/12/16 02:07:38;;;;;;;3.67;1.43;;;;;;;-142.75;100.00;78432.91;4994825;28;20828;-66
2022/12/16 02:10:04;;;;;;;5.65;1.45;;;;;;;-142.75;100.00;78427.00;4993830;28;20032;-66
2022/12/16 02:13:12;;;;;;;3.60;1.30;;;;;;;-142.75;100.00;78434.88;4997399;28;20110;-66
2022/12/16 02:15:44;;;;;;;3.55;1.30;;;;;;;-142.75;100.00;78428.97;4908392;28;20641;-66
2022/12/16 02:18:10;;;;;;;3.27;1.70;;;;;;;-142.75;100.00;78417.16;4989119;28;20061;-66
2022/12/16 02:20:51;;;;;;;2.65;1.33;;;;;;;-142.75;100.00;78430.94;4996762;28;20108;-66
2022/12/16 02:23:35;;;;;;;4.73;1.20;;;;;;;-142.75;100.00;78440.78;4992376;28;20156;-66
2022/12/16 02:26:25;;;;;;;2.83;1.40;;;;;;;-142.75;100.00;78436.84;4986026;28;20565;-66
2022/12/16 02:29:12;;;;;;;7.97;1.87;;;;;;;-142.75;100.00;78452.59;4983612;28;20079;-66
2022/12/16 02:31:44;;;;;;;3.30;1.15;;;;;;;-142.75;100.00;78460.47;4994205;28;20024;-66
2022/12/16 02:34:23;;;;;;;4.07;1.23;;;;;;;-142.75;100.00;78460.47;4990970;28;20529;-66
2022/12/16 02:37:03;;;;;;;4.30;1.20;;;;;;;-142.75;100.00;78468.34;4986698;28;20213;-66
2022/12/16 02:39:37;;;;;;;4.43;1.47;;;;;;;-142.75;100.00;78460.47;4983218;28;20144;-66
2022/12/16 02:42:30;;;;;;;3.57;1.23;;;;;;;-142.75;100.00;78456.53;4993526;28;20029;-66
2022/12/16 02:45:09;;;;;;;4.97;1.57;;;;;;;-142.75;100.00;78480.16;4993727;28;20067;-65
2022/12/16 02:47:34;;;;;;;7.07;1.50;;;;;;;-142.75;100.00;78468.34;5002624;28;20143;-66
2022/12/16 02:50:00;;;;;;;4.10;1.52;;;;;;;-142.75;100.00;78468.34;4994253;28;20055;-66
2022/12/16 02:52:29;;;;;;;4.00;1.63;;;;;;;-142.75;100.00;78474.25;4998523;28;20329;-66
2022/12/16 02:55:00;;;;;;;5.83;1.00;;;;;;;-142.75;100.00;78484.09;4997351;28;20156;-66
2022/12/16 02:57:28;;;;;;;7.80;1.30;;;;;;;-142.75;100.00;78484.09;4998532;28;20140;-66
2022/12/16 03:00:00;;;;;;;7.47;1.67;;;;;;;-142.75;100.00;78486.06;4995258;28;20067;-66
2022/12/16 03:02:56;;;;;;;5.67;1.30;;;;;;;-142.75;100.00;78484.09;4993666;28;20051;-66
2022/12/16 03:05:30;;;;;;;10.23;1.60;;;;;;;-142.75;100.00;78491.97;4993509;28;20557;-66
2022/12/16 03:07:58;;;;;;;5.77;1.40;;;;;;;-142.75;100.00;78497.91;4988924;28;20134;-66
2022/12/16 03:10:29;;;;;;;4.83;1.37;;;;;;;-142.75;100.00;78495.94;4997852;28;20148;-66
2022/12/16 03:12:58;;;;;;;8.70;1.50;;;;;;;-142.75;100.00;78497.91;4991957;28;20028;-66
2022/12/16 03:15:28;;;;;;;4.50;1.30;;;;;;;-142.75;100.00;78507.75;4990587;28;20033;-65
2022/12/16 03:17:56;;;;;;;4.00;1.27;;;;;;;-142.75;100.00;78517.59;4990696;28;20704;-66
2022/12/16 03:20:27;;;;;;;3.80;1.30;;;;;;;-142.75;100.00;78515.63;4985385;28;20047;-66
2022/12/16 03:22:56;;;;;;;3.40;1.23;;;;;;;-142.75;100.00;78517.59;4988965;28;20032;-66
2022/12/16 03:25:22;;;;;;;5.57;1.20;;;;;;;-142.75;100.00;78523.50;4990522;28;20139;-66
2022/12/16 03:28:03;;;;;;;6.67;1.50;;;;;;;-142.75;100.00;78547.13;5001571;28;20060;-66
2022/12/16 03:30:37;;;;;;;5.50;1.37;;;;;;;-142.75;100.00;78553.03;4987886;28;20021;-66
2022/12/16 03:33:10;;;;;;;2.83;1.03;;;;;;;-142.75;100.00;78558.94;4994570;28;20541;-66
2022/12/16 03:35:46;;;;;;;3.70;1.03;;;;;;;-142.75;100.00;78558.94;4987079;28;20024;-66
2022/12/16 03:38:14;;;;;;;1.98;1.08;;;;;;;-142.75;100.00;78570.75;4990698;28;20021;-66
2022/12/16 03:40:42;;;;;;;6.00;1.00;;;;;;;-142.75;100.00;78578.63;4985214;28;20561;-66
2022/12/16 03:43:13;;;;;;;6.50;1.10;;;;;;;-142.75;100.00;78568.78;4985955;28;20043;-66
2022/12/16 03:45:40;;;;;;;7.47;1.33;;;;;;;-142.75;100.00;78562.88;4994828;28;20060;-66
2022/12/16 03:48:08;;;;;;;5.87;1.17;;;;;;;-142.75;100.00;78562.88;4994764;28;20051;-66
2022/12/16 03:50:35;;;;;;;4.67;1.00;;;;;;;-142.75;100.00;78578.63;4992775;28;20600;-66
2022/12/16 03:53:01;;;;;;;5.60;0.87;;;;;;;-142.75;100.00;78555.00;4987218;28;20033;-66
2022/12/16 03:55:27;;;;;;;7.35;1.20;;;;;;;-142.75;100.00;78543.19;4985441;28;20087;-66
2022/12/16 03:57:52;;;;;;;3.47;1.65;;;;;;;-142.75;100.00;78558.94;4989976;28;20345;-65
2022/12/16 04:00:19;;;;;;;6.80;1.20;;;;;;;-142.75;100.00;78545.16;4983117;28;20346;-66
2022/12/16 04:02:44;;;;;;;2.93;1.10;;;;;;;-142.75;100.00;78564.84;4989814;28;20156;-66
2022/12/16 04:05:10;;;;;;;8.23;1.30;;;;;;;-142.75;100.00;78574.69;4985651;28;20337;-66
2022/12/16 04:07:36;;;;;;;7.53;1.10;;;;;;;-142.75;100.00;78612.13;4989932;28;20336;-66
2022/12/16 04:10:01;;;;;;;4.63;1.20;;;;;;;-142.75;100.00;78621.97;4989009;28;20325;-65
2022/12/16 04:26:15;;;;;;;5.90;1.20;;;;;;;-142.75;100.00;78600.31;4989576;28;20072;-66
2022/12/16 04:28:41;;;;;;;2.85;1.35;;;;;;;-142.75;100.00;78610.16;4984739;28;20021;-66
2022/12/16 04:31:07;;;;;;;3.47;1.45;;;;;;;-142.75;100.00;78618.03;4984037;28;20365;-66
